createdAt,value
2019-04-21T00:02:22.853Z,46.90
2019-04-21T00:05:19.920Z,47.00
2019-04-21T00:08:05.134Z,47.00
2019-04-21T00:10:35.675Z,47.10
2019-04-21T00:13:00.416Z,47.20
2019-04-21T00:15:28.669Z,47.00
2019-04-21T00:17:57.046Z,47.00
2019-04-21T00:20:37.722Z,47.00
2019-04-21T00:23:19.813Z,47.00
2019-04-21T00:25:50.007Z,47.30
2019-04-21T00:28:30.301Z,47.10
2019-04-21T00:31:00.481Z,47.50
2019-04-21T00:33:21.399Z,47.50
2019-04-21T00:35:57.300Z,47.60
2019-04-21T00:38:57.021Z,47.50
2019-04-21T00:41:26.396Z,47.30
2019-04-21T00:44:00.716Z,47.80
2019-04-21T00:46:34.769Z,47.60
2019-04-21T00:49:10.514Z,47.90
2019-04-21T00:52:14.313Z,47.80
2019-04-21T00:54:41.713Z,47.90
2019-04-21T00:57:22.063Z,48.10
2019-04-21T00:59:47.974Z,48.10
2019-04-21T01:02:15.419Z,48.40
2019-04-21T01:05:02.027Z,48.40
2019-04-21T01:07:30.541Z,48.40
2019-04-21T01:09:54.120Z,48.70
2019-04-21T01:12:37.394Z,48.40
2019-04-21T01:15:12.566Z,48.40
2019-04-21T01:17:41.822Z,48.50
2019-04-21T01:20:06.724Z,48.70
2019-04-21T01:22:25.305Z,48.90
2019-04-21T01:25:09.060Z,48.90
2019-04-21T01:27:56.419Z,49.00
2019-04-21T01:30:29.868Z,49.20
2019-04-21T01:33:00.091Z,49.30
2019-04-21T01:35:35.448Z,49.10
2019-04-21T01:38:31.621Z,49.30
2019-04-21T01:40:59.199Z,49.30
2019-04-21T01:43:17.650Z,49.50
2019-04-21T01:45:48.966Z,49.40
2019-04-21T01:48:22.873Z,49.70
2019-04-21T01:50:51.643Z,49.70
2019-04-21T01:53:58.001Z,49.70
2019-04-21T01:56:41.848Z,49.70
2019-04-21T01:59:07.376Z,49.80
2019-04-21T02:02:17.086Z,50.00
2019-04-21T02:04:47.382Z,50.10
2019-04-21T02:07:21.897Z,50.10
2019-04-21T02:10:00.863Z,50.20
2019-04-21T02:12:33.424Z,50.30
2019-04-21T02:15:19.772Z,50.20
2019-04-21T02:17:43.726Z,50.20
2019-04-21T02:20:20.142Z,50.30
2019-04-21T02:23:12.905Z,50.40
2019-04-21T02:25:38.489Z,50.40
2019-04-21T02:28:24.443Z,50.30
2019-04-21T02:33:39.117Z,50.60
2019-04-21T02:38:52.900Z,50.80
2019-04-21T02:41:13.163Z,50.70
2019-04-21T02:43:52.516Z,50.60
2019-04-21T02:54:32.210Z,51.00
2019-04-21T02:59:29.107Z,51.00
2019-04-21T03:02:35.006Z,50.70
2019-04-21T03:05:29.120Z,50.90
2019-04-21T03:10:39.228Z,50.90
2019-04-21T03:13:08.460Z,51.10
2019-04-21T03:15:39.550Z,51.10
2019-04-21T03:18:12.924Z,51.00
2019-04-21T03:20:48.123Z,51.00
2019-04-21T03:25:50.168Z,51.10
2019-04-21T03:28:28.284Z,51.10
2019-04-21T03:36:33.229Z,51.30
2019-04-21T03:41:12.764Z,51.30
2019-04-21T03:43:46.614Z,51.50
2019-04-21T03:46:18.302Z,51.60
2019-04-21T03:48:51.829Z,51.70
2019-04-21T03:54:13.714Z,51.90
2019-04-21T03:56:52.413Z,51.90
2019-04-21T03:59:12.178Z,52.00
2019-04-21T04:01:57.818Z,51.90
2019-04-21T04:04:56.881Z,52.00
2019-04-21T04:10:11.694Z,52.10
2019-04-21T04:12:50.366Z,52.10
2019-04-21T04:15:31.109Z,52.00
2019-04-21T04:17:54.526Z,52.10
2019-04-21T04:20:28.075Z,52.10
2019-04-21T04:23:02.799Z,52.10
2019-04-21T04:25:39.999Z,52.20
2019-04-21T04:28:18.963Z,52.40
2019-04-21T04:30:47.619Z,52.30
2019-04-21T04:33:27.895Z,52.20
2019-04-21T04:36:08.392Z,52.20
2019-04-21T04:38:33.954Z,52.50
2019-04-21T04:41:09.739Z,52.60
2019-04-21T04:43:37.200Z,52.70
2019-04-21T04:46:16.030Z,52.70
2019-04-21T04:48:51.309Z,53.10
2019-04-21T04:51:25.222Z,52.80
2019-04-21T04:56:53.748Z,53.00
2019-04-21T04:59:24.571Z,53.00
2019-04-21T05:04:06.390Z,53.00
2019-04-21T05:06:52.665Z,53.10
2019-04-21T05:09:15.322Z,53.00
2019-04-21T05:11:55.578Z,53.10
2019-04-21T05:14:14.888Z,53.30
2019-04-21T05:17:02.276Z,53.20
2019-04-21T05:19:20.805Z,53.30
2019-04-21T05:22:01.279Z,53.50
2019-04-21T05:24:25.579Z,53.40
2019-04-21T05:26:52.893Z,53.40
2019-04-21T05:29:52.580Z,53.90
2019-04-21T05:32:37.895Z,52.90
2019-04-21T05:35:09.023Z,52.90
2019-04-21T05:37:47.733Z,52.40
2019-04-21T05:40:26.396Z,52.40
2019-04-21T05:43:03.371Z,52.40
2019-04-21T05:45:46.132Z,51.80
2019-04-21T05:48:33.578Z,51.00
2019-04-21T05:50:58.933Z,50.60
2019-04-21T05:53:36.980Z,50.90
2019-04-21T05:56:10.037Z,50.30
2019-04-21T05:58:46.547Z,49.70
2019-04-21T06:01:31.415Z,49.10
2019-04-21T06:03:57.363Z,49.30
2019-04-21T06:06:34.038Z,48.40
2019-04-21T06:09:00.943Z,48.50
2019-04-21T06:11:40.690Z,48.10
2019-04-21T06:14:25.101Z,47.90
2019-04-21T06:19:22.331Z,47.10
2019-04-21T06:21:45.185Z,46.50
2019-04-21T06:24:25.124Z,46.30
2019-04-21T06:29:31.499Z,45.30
2019-04-21T06:32:29.537Z,44.90
2019-04-21T06:34:53.151Z,44.70
2019-04-21T06:37:40.203Z,44.10
2019-04-21T06:40:15.211Z,42.50
2019-04-21T06:42:39.149Z,43.10
2019-04-21T06:45:31.324Z,41.50
2019-04-21T06:47:42.641Z,40.70
2019-04-21T06:50:14.564Z,42.00
2019-04-21T06:52:56.238Z,40.40
2019-04-21T06:55:26.650Z,41.00
2019-04-21T06:58:00.173Z,39.80
2019-04-21T07:00:35.848Z,39.60
2019-04-21T07:03:19.277Z,37.70
2019-04-21T07:05:52.463Z,37.80
2019-04-21T07:08:30.283Z,38.30
2019-04-21T07:10:54.491Z,36.40
2019-04-21T07:13:29.394Z,35.70
2019-04-21T07:16:11.999Z,37.30
2019-04-21T07:18:54.165Z,36.20
2019-04-21T07:21:30.132Z,36.80
2019-04-21T07:24:10.689Z,36.00
2019-04-21T07:26:54.153Z,34.10
2019-04-21T07:29:40.935Z,33.40
2019-04-21T07:32:12.116Z,33.30
2019-04-21T07:34:48.054Z,33.80
2019-04-21T07:37:11.702Z,32.30
2019-04-21T07:39:52.816Z,33.10
2019-04-21T07:42:19.258Z,32.10
2019-04-21T07:44:52.350Z,30.00
2019-04-21T07:47:44.557Z,31.60
2019-04-21T07:50:14.880Z,30.60
2019-04-21T07:53:24.284Z,31.00
2019-04-21T07:55:35.811Z,30.20
2019-04-21T07:58:37.351Z,29.90
2019-04-21T08:01:07.504Z,28.50
2019-04-21T08:03:38.870Z,30.00
2019-04-21T08:06:20.759Z,29.20
2019-04-21T08:08:49.424Z,28.80
2019-04-21T08:11:22.445Z,28.30
2019-04-21T08:13:57.280Z,28.20
2019-04-21T08:16:31.853Z,28.30
2019-04-21T08:19:09.741Z,28.10
2019-04-21T08:21:33.878Z,27.80
2019-04-21T08:24:07.675Z,28.70
2019-04-21T08:26:43.303Z,28.60
2019-04-21T08:29:25.734Z,29.60
2019-04-21T08:31:56.284Z,29.10
2019-04-21T08:36:51.087Z,30.10
2019-04-21T08:39:42.320Z,29.90
2019-04-21T08:42:04.437Z,29.70
2019-04-21T08:44:40.488Z,29.80
2019-04-21T08:47:12.583Z,30.40
2019-04-21T08:49:41.502Z,30.00
2019-04-21T08:52:28.458Z,30.50
2019-04-21T08:54:59.444Z,30.70
2019-04-21T08:57:47.633Z,29.90
2019-04-21T09:00:20.075Z,30.10
2019-04-21T09:03:14.214Z,28.90
2019-04-21T09:05:53.945Z,28.60
2019-04-21T09:08:26.122Z,28.30
2019-04-21T09:10:53.081Z,27.30
2019-04-21T09:13:32.149Z,26.40
2019-04-21T09:16:04.421Z,26.20
2019-04-21T09:18:33.750Z,24.40
2019-04-21T09:21:16.263Z,23.60
2019-04-21T09:23:45.270Z,24.80
2019-04-21T09:26:20.098Z,21.50
2019-04-21T09:28:45.112Z,20.30
2019-04-21T09:31:06.793Z,21.90
2019-04-21T09:33:45.203Z,20.60
2019-04-21T09:36:18.006Z,21.00
2019-04-21T09:38:57.677Z,21.40
2019-04-21T09:41:24.253Z,19.80
2019-04-21T09:43:57.197Z,19.30
2019-04-21T09:46:27.610Z,16.90
2019-04-21T09:49:02.592Z,18.30
2019-04-21T09:51:32.510Z,18.20
2019-04-21T09:54:08.826Z,17.40
2019-04-21T09:56:46.306Z,17.70
2019-04-21T09:59:23.058Z,16.70
2019-04-21T10:01:57.511Z,16.70
2019-04-21T10:04:18.709Z,17.00
2019-04-21T10:06:49.798Z,16.30
2019-04-21T10:09:22.393Z,16.50
2019-04-21T10:11:58.721Z,16.40
2019-04-21T10:14:33.105Z,15.60
2019-04-21T10:17:22.335Z,15.60
2019-04-21T10:19:53.248Z,16.00
2019-04-21T10:22:24.743Z,15.40
2019-04-21T10:24:56.428Z,15.90
2019-04-21T10:27:27.469Z,15.10
2019-04-21T10:29:59.591Z,14.70
2019-04-21T10:32:32.279Z,15.10
2019-04-21T10:35:03.349Z,13.70
2019-04-21T10:37:48.519Z,14.80
2019-04-21T10:40:11.780Z,14.40
2019-04-21T10:42:45.891Z,14.90
2019-04-21T10:45:21.085Z,13.70
2019-04-21T10:47:52.833Z,14.30
2019-04-21T10:50:24.585Z,14.90
2019-04-21T10:53:18.829Z,14.50
2019-04-21T10:56:04.190Z,14.40
2019-04-21T10:58:40.372Z,14.50
2019-04-21T11:01:25.239Z,14.60
2019-04-21T11:04:21.822Z,15.10
2019-04-21T11:06:52.670Z,14.50
2019-04-21T11:09:26.341Z,15.40
2019-04-21T11:12:06.137Z,14.50
2019-04-21T11:14:38.932Z,14.00
2019-04-21T11:17:12.352Z,14.00
2019-04-21T11:19:50.655Z,14.00
2019-04-21T11:22:21.507Z,13.80
2019-04-21T11:24:58.655Z,14.40
2019-04-21T11:27:30.994Z,13.40
2019-04-21T11:30:06.007Z,14.00
2019-04-21T11:32:42.994Z,14.40
2019-04-21T11:35:15.044Z,14.40
2019-04-21T11:37:46.278Z,14.60
2019-04-21T11:40:27.695Z,14.10
2019-04-21T11:43:01.977Z,13.50
2019-04-21T11:45:36.629Z,13.50
2019-04-21T11:48:20.170Z,14.20
2019-04-21T11:50:53.188Z,14.60
2019-04-21T11:53:25.196Z,14.00
2019-04-21T11:55:56.981Z,13.00
2019-04-21T11:58:45.833Z,13.60
2019-04-21T12:01:17.950Z,14.00
2019-04-21T12:03:49.734Z,13.50
2019-04-21T12:06:32.341Z,13.10
2019-04-21T12:09:01.638Z,13.30
2019-04-21T12:11:33.755Z,13.70
2019-04-21T12:14:05.919Z,14.00
2019-04-21T12:16:37.077Z,13.60
2019-04-21T12:19:09.193Z,13.50
2019-04-21T12:21:53.446Z,14.80
2019-04-21T12:24:13.252Z,14.60
2019-04-21T12:26:44.798Z,14.50
2019-04-21T12:29:16.667Z,15.40
2019-04-21T12:32:20.136Z,15.10
2019-04-21T12:34:52.166Z,16.30
2019-04-21T12:37:24.703Z,16.60
2019-04-21T12:39:56.836Z,16.40
2019-04-21T12:42:27.972Z,16.70
2019-04-21T12:44:59.414Z,16.00
2019-04-21T12:47:34.098Z,16.60
2019-04-21T12:50:06.655Z,16.90
2019-04-21T12:52:37.929Z,17.40
2019-04-21T12:55:19.740Z,16.40
2019-04-21T12:57:49.577Z,16.40
2019-04-21T13:00:22.835Z,16.30
2019-04-21T13:02:54.051Z,15.90
2019-04-21T13:05:25.449Z,15.90
2019-04-21T13:08:03.772Z,15.80
2019-04-21T13:10:36.000Z,16.10
2019-04-21T13:13:08.088Z,15.80
2019-04-21T13:15:39.836Z,17.60
2019-04-21T13:18:12.385Z,16.10
2019-04-21T13:20:44.360Z,16.70
2019-04-21T13:23:16.797Z,17.00
2019-04-21T13:25:47.940Z,16.80
2019-04-21T13:28:20.779Z,16.80
2019-04-21T13:30:51.651Z,17.20
2019-04-21T13:33:22.976Z,17.70
2019-04-21T13:35:55.141Z,18.40
2019-04-21T13:38:34.332Z,18.90
2019-04-21T13:41:33.847Z,18.60
2019-04-21T13:44:13.239Z,18.50
2019-04-21T13:46:45.260Z,19.00
2019-04-21T13:49:17.429Z,19.50
2019-04-21T13:51:49.953Z,18.80
2019-04-21T13:54:21.901Z,18.20
2019-04-21T13:56:56.544Z,18.10
2019-04-21T14:02:00.495Z,19.50
2019-04-21T14:04:31.703Z,19.30
2019-04-21T14:07:03.474Z,19.90
2019-04-21T14:09:43.756Z,18.80
2019-04-21T14:12:07.827Z,18.70
2019-04-21T14:14:38.950Z,18.60
2019-04-21T14:17:10.908Z,19.30
2019-04-21T14:19:43.465Z,19.30
2019-04-21T14:22:17.994Z,19.20
2019-04-21T14:24:49.984Z,19.50
2019-04-21T14:27:21.144Z,19.30
2019-04-21T14:29:53.527Z,19.30
2019-04-21T14:32:26.567Z,19.00
2019-04-21T14:35:04.929Z,19.10
2019-04-21T14:37:38.348Z,20.10
2019-04-21T14:40:20.086Z,20.10
2019-04-21T14:42:49.949Z,20.00
2019-04-21T14:45:44.795Z,20.60
2019-04-21T14:48:36.921Z,20.60
2019-04-21T14:51:49.738Z,21.20
2019-04-21T14:54:44.667Z,21.50
2019-04-21T14:57:16.110Z,21.60
2019-04-21T14:59:49.495Z,21.60
2019-04-21T15:02:22.819Z,21.40
2019-04-21T15:04:59.838Z,21.20
2019-04-21T15:07:33.093Z,21.40
2019-04-21T15:10:14.284Z,21.50
2019-04-21T15:12:37.967Z,21.70
2019-04-21T15:15:15.869Z,22.10
2019-04-21T15:17:47.559Z,21.70
2019-04-21T15:20:20.168Z,21.70
2019-04-21T15:22:52.489Z,21.80
2019-04-21T15:25:23.810Z,22.40
2019-04-21T15:27:59.078Z,22.10
2019-04-21T15:30:30.330Z,22.60
2019-04-21T15:33:02.349Z,23.30
2019-04-21T15:35:35.183Z,23.40
2019-04-21T15:38:07.581Z,23.80
2019-04-21T15:40:47.956Z,23.50
2019-04-21T15:43:14.779Z,23.40
2019-04-21T15:45:46.768Z,23.70
2019-04-21T15:48:18.241Z,24.20
2019-04-21T15:50:50.353Z,24.20
2019-04-21T15:53:23.612Z,24.50
2019-04-21T15:59:06.474Z,24.90
2019-04-21T16:02:10.648Z,25.00
2019-04-21T16:04:43.422Z,24.70
2019-04-21T16:07:20.206Z,25.20
2019-04-21T16:09:52.588Z,25.60
2019-04-21T16:12:23.795Z,25.60
2019-04-21T16:14:56.603Z,26.00
2019-04-21T16:17:27.803Z,25.60
2019-04-21T16:19:59.758Z,26.00
2019-04-21T16:22:30.894Z,26.00
2019-04-21T16:25:03.332Z,26.20
2019-04-21T16:27:35.190Z,26.30
2019-04-21T16:30:09.941Z,26.30
2019-04-21T16:32:42.010Z,26.70
2019-04-21T16:35:14.980Z,27.00
2019-04-21T16:37:47.752Z,26.90
2019-04-21T16:40:21.302Z,27.50
2019-04-21T16:42:52.419Z,27.60
2019-04-21T16:45:25.319Z,27.90
2019-04-21T16:47:57.481Z,28.50
2019-04-21T16:50:30.032Z,28.50
2019-04-21T16:53:17.632Z,28.50
2019-04-21T16:56:05.112Z,28.60
2019-04-21T16:58:44.948Z,28.50
2019-04-21T17:01:22.430Z,28.80
2019-04-21T17:03:54.942Z,29.20
2019-04-21T17:06:29.200Z,29.20
2019-04-21T17:09:01.042Z,29.50
2019-04-21T17:11:38.044Z,29.50
2019-04-21T17:14:32.909Z,29.30
2019-04-21T17:17:17.963Z,29.30
2019-04-21T17:19:32.884Z,29.30
2019-04-21T17:22:09.898Z,29.10
2019-04-21T17:24:44.406Z,29.30
2019-04-21T17:27:17.449Z,29.40
2019-04-21T17:29:54.765Z,29.60
2019-04-21T17:32:32.177Z,29.70
2019-04-21T17:35:02.128Z,29.80
2019-04-21T17:37:52.108Z,30.00
2019-04-21T17:40:26.533Z,30.00
2019-04-21T17:43:03.214Z,30.00
2019-04-21T17:45:41.936Z,30.20
2019-04-21T17:48:23.230Z,30.30
2019-04-21T17:51:31.929Z,30.70
2019-04-21T17:54:17.619Z,31.00
2019-04-21T17:57:05.801Z,31.50
2019-04-21T17:59:50.642Z,31.80
2019-04-21T18:02:21.457Z,32.80
2019-04-21T18:05:08.631Z,33.20
2019-04-21T18:07:38.506Z,32.90
2019-04-21T18:10:07.448Z,34.20
2019-04-21T18:12:41.416Z,33.20
2019-04-21T18:15:21.998Z,33.10
2019-04-21T18:17:36.646Z,32.90
2019-04-21T18:20:12.206Z,32.60
2019-04-21T18:23:02.539Z,32.70
2019-04-21T18:25:45.275Z,32.30
2019-04-21T18:28:08.232Z,32.50
2019-04-21T18:30:52.398Z,32.20
2019-04-21T18:33:32.109Z,31.70
2019-04-21T18:36:15.855Z,31.60
2019-04-21T18:39:28.568Z,31.40
2019-04-21T18:42:05.061Z,31.30
2019-04-21T18:45:20.750Z,31.20
2019-04-21T18:47:32.000Z,31.50
2019-04-21T18:49:52.397Z,31.70
2019-04-21T18:52:45.233Z,31.40
2019-04-21T18:55:12.909Z,31.50
2019-04-21T18:57:41.807Z,31.40
2019-04-21T19:00:15.377Z,31.40
2019-04-21T19:02:45.630Z,31.10
2019-04-21T19:05:15.982Z,31.20
2019-04-21T19:08:02.980Z,31.30
2019-04-21T19:10:45.772Z,31.30
2019-04-21T19:13:38.065Z,31.30
2019-04-21T19:15:42.080Z,31.30
2019-04-21T19:18:32.539Z,31.40
2019-04-21T19:20:50.346Z,31.50
2019-04-21T19:23:33.865Z,31.40
2019-04-21T19:26:04.925Z,31.50
2019-04-21T19:28:25.235Z,31.50
2019-04-21T19:31:10.991Z,31.60
2019-04-21T19:33:29.429Z,31.50
2019-04-21T19:35:52.956Z,31.50
2019-04-21T19:38:35.460Z,31.60
2019-04-21T19:41:19.069Z,32.50
2019-04-21T19:43:45.906Z,31.90
2019-04-21T19:46:18.100Z,31.80
2019-04-21T19:49:00.891Z,32.00
2019-04-21T19:51:21.940Z,31.90
2019-04-21T19:53:55.040Z,31.80
2019-04-21T19:56:15.939Z,31.80
2019-04-21T19:58:49.143Z,31.80
2019-04-21T20:01:21.281Z,31.70
2019-04-21T20:03:57.711Z,32.10
2019-04-21T20:06:39.264Z,32.20
2019-04-21T20:09:17.740Z,32.50
2019-04-21T20:11:52.379Z,32.70
2019-04-21T20:16:56.728Z,32.70
2019-04-21T20:19:17.505Z,32.80
2019-04-21T20:21:49.211Z,32.90
2019-04-21T20:24:26.538Z,33.20
2019-04-21T20:27:04.725Z,33.10
2019-04-21T20:29:51.138Z,33.00
2019-04-21T20:32:38.223Z,33.30
2019-04-21T20:35:02.761Z,33.50
2019-04-21T20:37:25.263Z,33.40
2019-04-21T20:39:53.166Z,34.00
2019-04-21T20:42:27.994Z,33.90
2019-04-21T20:45:27.171Z,33.90
2019-04-21T20:47:35.596Z,34.10
2019-04-21T20:50:12.403Z,34.70
2019-04-21T20:52:50.930Z,34.70
2019-04-21T20:55:15.578Z,34.50
2019-04-21T20:57:46.442Z,34.50
2019-04-21T21:00:31.772Z,34.50
2019-04-21T21:03:04.498Z,34.60
2019-04-21T21:05:27.678Z,34.60
2019-04-21T21:08:13.662Z,34.70
2019-04-21T21:10:38.626Z,34.70
2019-04-21T21:13:22.204Z,34.90
2019-04-21T21:15:52.619Z,35.20
2019-04-21T21:18:41.071Z,35.10
2019-04-21T21:20:54.077Z,35.20
2019-04-21T21:23:24.322Z,35.50
2019-04-21T21:25:55.088Z,35.80
2019-04-21T21:28:26.702Z,35.80
2019-04-21T21:31:09.680Z,35.90
2019-04-21T21:33:46.891Z,35.90
2019-04-21T21:36:13.983Z,36.10
2019-04-21T21:38:42.864Z,36.50
2019-04-21T21:41:11.943Z,36.60
2019-04-21T21:43:34.481Z,36.70
2019-04-21T21:46:27.150Z,37.20
2019-04-21T21:48:54.124Z,37.30
2019-04-21T21:51:19.191Z,37.20
2019-04-21T21:53:45.760Z,37.50
2019-04-21T21:56:18.405Z,38.00
2019-04-21T21:58:53.841Z,38.50
2019-04-21T22:01:31.821Z,38.60
2019-04-21T22:04:09.258Z,38.70
2019-04-21T22:06:42.157Z,39.00
2019-04-21T22:09:12.655Z,39.10
2019-04-21T22:11:44.456Z,39.20
2019-04-21T22:14:22.897Z,39.30
2019-04-21T22:17:09.258Z,40.00
2019-04-21T22:19:41.715Z,40.40
2019-04-21T22:22:09.649Z,40.60
2019-04-21T22:24:43.897Z,40.80
2019-04-21T22:26:59.207Z,40.70
2019-04-21T22:29:38.040Z,41.20
2019-04-21T22:32:12.676Z,41.40
2019-04-21T22:34:44.145Z,41.50
2019-04-21T22:37:28.730Z,41.50
2019-04-21T22:39:56.986Z,41.80
2019-04-21T22:42:21.546Z,42.50
2019-04-21T22:44:46.556Z,42.10
2019-04-21T22:47:24.139Z,42.40
2019-04-21T22:49:50.720Z,42.70
2019-04-21T22:52:26.064Z,42.60
2019-04-21T22:54:55.982Z,42.60
2019-04-21T22:57:36.481Z,43.40
2019-04-21T23:00:07.092Z,43.70
2019-04-21T23:02:36.784Z,43.80
2019-04-21T23:05:15.566Z,44.00
2019-04-21T23:07:51.224Z,44.30
2019-04-21T23:10:23.249Z,44.50
2019-04-21T23:12:59.540Z,44.70
2019-04-21T23:15:39.528Z,44.90
2019-04-21T23:18:22.404Z,45.00
2019-04-21T23:20:53.594Z,45.50
2019-04-21T23:23:29.676Z,45.60
2019-04-21T23:26:01.178Z,46.40
2019-04-21T23:28:40.548Z,46.10
2019-04-21T23:31:11.068Z,45.90
2019-04-21T23:33:24.025Z,46.60
2019-04-21T23:36:03.684Z,46.80
2019-04-21T23:38:37.557Z,46.70
2019-04-21T23:41:07.084Z,47.00
2019-04-21T23:43:38.154Z,46.90
2019-04-21T23:46:19.806Z,47.20
2019-04-21T23:49:02.461Z,47.40
2019-04-21T23:51:32.717Z,47.60
2019-04-21T23:53:49.503Z,48.10
2019-04-21T23:56:32.923Z,48.30
2019-04-21T23:59:04.155Z,48.10
